createdAt,value
2023-04-25T00:00:51.171Z,1.40
2023-04-25T00:03:19.695Z,1.30
2023-04-25T00:05:46.650Z,0.82
2023-04-25T00:08:13.329Z,0.77
2023-04-25T00:10:39.900Z,0.70
2023-04-25T00:13:07.349Z,1.30
2023-04-25T00:15:33.956Z,0.85
2023-04-25T00:18:00.607Z,0.75
2023-04-25T00:20:27.264Z,0.60
2023-04-25T00:22:54.495Z,2.20
2023-04-25T00:25:21.244Z,0.88
2023-04-25T00:27:47.808Z,0.95
2023-04-25T00:30:15.034Z,1.02
2023-04-25T00:32:41.668Z,1.77
2023-04-25T00:35:08.611Z,1.23
2023-04-25T00:37:35.442Z,0.77
2023-04-25T00:40:02.010Z,1.67
2023-04-25T00:42:29.624Z,2.95
2023-04-25T00:44:57.953Z,1.15
2023-04-25T00:47:24.903Z,1.17
2023-04-25T00:49:51.537Z,0.77
2023-04-25T00:52:18.248Z,1.27
2023-04-25T00:54:45.433Z,1.60
2023-04-25T00:57:12.234Z,1.00
2023-04-25T00:59:39.382Z,0.77
2023-04-25T01:02:06.381Z,1.73
2023-04-25T01:04:33.130Z,1.08
2023-04-25T01:06:59.741Z,1.42
2023-04-25T01:09:26.848Z,1.60
2023-04-25T01:11:53.476Z,1.63
2023-04-25T01:14:20.275Z,1.50
2023-04-25T01:16:46.960Z,0.70
2023-04-25T01:19:17.573Z,0.90
2023-04-25T01:21:46.596Z,1.05
2023-04-25T01:24:14.111Z,0.85
2023-04-25T01:26:45.279Z,1.48
2023-04-25T01:29:12.047Z,0.70
2023-04-25T01:31:39.140Z,0.80
2023-04-25T01:34:06.306Z,0.70
2023-04-25T01:36:33.287Z,0.68
2023-04-25T01:39:01.680Z,0.98
2023-04-25T01:41:28.716Z,0.80
2023-04-25T01:43:56.134Z,0.70
2023-04-25T01:46:22.940Z,1.13
2023-04-25T01:48:49.631Z,0.88
2023-04-25T01:51:16.609Z,0.93
2023-04-25T01:53:44.158Z,0.73
2023-04-25T01:56:11.466Z,0.82
2023-04-25T01:58:39.323Z,0.90
2023-04-25T02:01:14.847Z,0.70
2023-04-25T02:03:47.210Z,0.77
2023-04-25T02:06:24.441Z,1.65
2023-04-25T02:08:53.187Z,0.77
2023-04-25T02:11:19.868Z,1.05
2023-04-25T02:13:55.622Z,1.52
2023-04-25T02:16:38.251Z,0.77
2023-04-25T02:19:07.562Z,1.10
2023-04-25T02:21:36.702Z,0.90
2023-04-25T02:24:04.664Z,0.80
2023-04-25T02:26:31.567Z,0.90
2023-04-25T02:28:58.568Z,1.00
2023-04-25T02:31:25.512Z,0.93
2023-04-25T02:33:52.992Z,1.50
2023-04-25T02:36:19.885Z,0.93
2023-04-25T02:38:48.951Z,1.85
2023-04-25T02:41:15.734Z,1.02
2023-04-25T02:43:42.278Z,1.35
2023-04-25T02:46:08.916Z,1.95
2023-04-25T02:48:35.486Z,0.85
2023-04-25T02:51:02.075Z,0.93
2023-04-25T02:53:30.311Z,1.30
2023-04-25T02:55:59.303Z,1.02
2023-04-25T02:58:26.334Z,0.80
2023-04-25T03:00:54.568Z,1.33
2023-04-25T03:03:22.944Z,1.45
2023-04-25T03:05:51.638Z,0.80
2023-04-25T03:08:24.012Z,0.95
2023-04-25T03:10:52.419Z,0.80
2023-04-25T03:13:19.372Z,0.60
2023-04-25T03:15:46.629Z,0.98
2023-04-25T03:18:13.443Z,0.80
2023-04-25T03:20:41.710Z,1.10
2023-04-25T03:23:09.426Z,0.88
2023-04-25T03:25:36.454Z,1.38
2023-04-25T03:28:04.849Z,1.00
2023-04-25T03:30:31.856Z,0.73
2023-04-25T03:32:58.657Z,0.77
2023-04-25T03:35:26.162Z,0.80
2023-04-25T03:37:53.330Z,0.85
2023-04-25T03:40:25.929Z,1.05
2023-04-25T03:43:12.761Z,0.80
2023-04-25T03:45:43.647Z,0.73
2023-04-25T03:48:10.316Z,1.00
2023-04-25T03:50:37.270Z,0.80
2023-04-25T03:53:05.661Z,0.82
2023-04-25T03:55:48.174Z,0.70
2023-04-25T03:58:14.838Z,1.20
2023-04-25T04:00:42.196Z,0.70
2023-04-25T04:03:09.272Z,0.80
2023-04-25T04:05:36.362Z,1.02
2023-04-25T04:08:03.486Z,0.93
2023-04-25T04:10:31.636Z,0.70
2023-04-25T04:12:58.277Z,1.35
2023-04-25T04:15:24.994Z,1.02
2023-04-25T04:17:52.046Z,0.88
2023-04-25T04:20:19.045Z,0.80
2023-04-25T04:22:45.716Z,1.10
2023-04-25T04:25:14.262Z,0.80
2023-04-25T04:28:19.196Z,0.80
2023-04-25T04:31:06.153Z,1.25
2023-04-25T04:33:33.327Z,0.88
2023-04-25T04:36:03.782Z,1.25
2023-04-25T04:38:31.137Z,1.20
2023-04-25T04:41:01.532Z,2.35
2023-04-25T04:43:57.042Z,1.35
2023-04-25T04:46:43.078Z,0.98
2023-04-25T04:49:27.408Z,1.08
2023-04-25T04:52:16.911Z,1.00
2023-04-25T04:55:00.053Z,2.05
2023-04-25T04:58:04.924Z,1.38
2023-04-25T05:00:59.287Z,1.38
2023-04-25T05:06:48.657Z,1.35
2023-04-25T05:09:16.195Z,1.60
2023-04-25T05:12:05.797Z,1.35
2023-04-25T05:14:51.077Z,1.40
2023-04-25T05:17:49.693Z,1.50
2023-04-25T05:20:25.743Z,1.40
2023-04-25T05:23:15.603Z,1.58
2023-04-25T05:25:59.782Z,2.03
2023-04-25T05:28:58.919Z,1.30
2023-04-25T05:31:31.449Z,1.40
2023-04-25T05:34:02.852Z,1.23
2023-04-25T05:36:41.077Z,1.45
2023-04-25T05:39:07.899Z,3.90
2023-04-25T05:41:53.257Z,3.17
2023-04-25T05:44:45.845Z,4.68
2023-04-25T05:47:44.977Z,9.57
2023-04-25T05:50:36.675Z,10.40
2023-04-25T05:53:22.914Z,12.13
2023-04-25T05:55:56.469Z,15.73
2023-04-25T05:58:25.862Z,13.35
2023-04-25T06:00:53.855Z,12.68
2023-04-25T06:03:21.444Z,11.68
2023-04-25T06:05:49.262Z,13.07
2023-04-25T06:08:15.963Z,7.78
2023-04-25T06:10:43.255Z,12.45
2023-04-25T06:13:09.809Z,6.10
2023-04-25T06:15:37.195Z,7.03
2023-04-25T06:18:04.071Z,12.63
2023-04-25T06:20:30.770Z,6.78
2023-04-25T06:22:59.781Z,8.73
2023-04-25T06:25:46.748Z,8.30
2023-04-25T06:28:13.713Z,5.10
2023-04-25T06:30:41.695Z,6.00
2023-04-25T06:33:12.551Z,7.90
2023-04-25T06:35:40.476Z,7.63
2023-04-25T06:38:10.309Z,7.40
2023-04-25T06:40:38.764Z,4.47
2023-04-25T06:43:06.630Z,7.60
2023-04-25T06:45:53.524Z,6.72
2023-04-25T06:48:21.620Z,7.45
2023-04-25T06:50:48.440Z,4.40
2023-04-25T06:53:15.791Z,6.03
2023-04-25T06:55:45.362Z,5.25
2023-04-25T06:58:17.111Z,4.82
2023-04-25T07:01:15.863Z,4.65
2023-04-25T07:03:42.764Z,6.43
2023-04-25T07:06:15.619Z,3.88
2023-04-25T07:08:42.468Z,3.95
2023-04-25T07:11:09.099Z,4.22
2023-04-25T07:13:37.454Z,4.90
2023-04-25T07:16:04.867Z,5.20
2023-04-25T07:18:34.228Z,3.97
2023-04-25T07:21:01.736Z,3.67
2023-04-25T07:23:29.525Z,4.60
2023-04-25T07:25:57.289Z,4.95
2023-04-25T07:28:25.801Z,3.47
2023-04-25T07:30:52.385Z,3.15
2023-04-25T07:33:21.364Z,3.25
2023-04-25T07:35:48.185Z,4.53
2023-04-25T07:38:15.105Z,4.80
2023-04-25T07:40:41.748Z,3.42
2023-04-25T07:43:09.919Z,3.35
2023-04-25T07:45:44.808Z,3.43
2023-04-25T07:48:11.707Z,4.20
2023-04-25T07:50:40.828Z,5.30
2023-04-25T07:53:07.680Z,4.53
2023-04-25T07:55:42.722Z,3.25
2023-04-25T07:58:16.340Z,5.65
2023-04-25T08:00:45.537Z,3.38
2023-04-25T08:03:41.686Z,4.45
2023-04-25T08:06:15.330Z,2.78
2023-04-25T08:08:53.805Z,3.15
2023-04-25T08:11:23.471Z,2.97
2023-04-25T08:13:51.033Z,3.22
2023-04-25T08:16:17.915Z,3.20
2023-04-25T08:18:45.031Z,3.63
2023-04-25T08:21:12.815Z,3.25
2023-04-25T08:23:39.912Z,2.10
2023-04-25T08:26:12.100Z,2.60
2023-04-25T08:28:39.998Z,1.85
2023-04-25T08:31:07.182Z,2.38
2023-04-25T08:33:42.735Z,2.05
2023-04-25T08:36:37.572Z,2.42
2023-04-25T08:39:08.123Z,2.45
2023-04-25T08:41:42.753Z,2.03
2023-04-25T08:44:11.823Z,2.28
2023-04-25T08:46:42.180Z,3.80
2023-04-25T08:49:18.818Z,2.20
2023-04-25T08:51:51.547Z,1.92
2023-04-25T08:54:34.357Z,2.85
2023-04-25T08:57:04.804Z,2.58
2023-04-25T08:59:34.013Z,2.05
2023-04-25T09:02:01.883Z,1.38
2023-04-25T09:04:33.811Z,1.80
2023-04-25T09:07:00.505Z,2.95
2023-04-25T09:09:27.697Z,2.83
2023-04-25T09:11:55.240Z,2.75
2023-04-25T09:14:22.990Z,1.92
2023-04-25T09:17:10.039Z,2.92
2023-04-25T09:19:46.819Z,2.10
2023-04-25T09:22:28.687Z,2.60
2023-04-25T09:24:55.253Z,1.73
2023-04-25T09:27:27.929Z,1.77
2023-04-25T09:30:12.458Z,2.35
2023-04-25T09:35:39.777Z,2.42
2023-04-25T09:38:13.442Z,1.80
2023-04-25T09:40:59.625Z,1.75
2023-04-25T09:43:37.837Z,1.48
2023-04-25T09:46:09.850Z,2.03
2023-04-25T09:48:39.901Z,1.88
2023-04-25T09:51:16.996Z,2.78
2023-04-25T09:53:50.950Z,2.78
2023-04-25T09:56:37.397Z,1.40
2023-04-25T09:59:07.759Z,1.63
2023-04-25T10:01:37.393Z,1.67
2023-04-25T10:04:12.861Z,1.20
2023-04-25T10:07:01.335Z,1.52
2023-04-25T10:09:32.848Z,2.15
2023-04-25T10:11:59.782Z,1.27
2023-04-25T10:14:27.154Z,1.25
2023-04-25T10:16:54.748Z,1.67
2023-04-25T10:19:21.677Z,1.20
2023-04-25T10:21:53.401Z,1.52
2023-04-25T10:24:20.962Z,1.20
2023-04-25T10:26:49.031Z,1.10
2023-04-25T10:29:24.154Z,1.33
2023-04-25T10:31:51.074Z,1.65
2023-04-25T10:34:18.768Z,2.05
2023-04-25T10:36:52.289Z,1.48
2023-04-25T10:39:26.236Z,1.20
2023-04-25T10:42:00.180Z,2.10
2023-04-25T10:44:31.141Z,1.80
2023-04-25T10:46:59.431Z,1.88
2023-04-25T10:49:38.921Z,1.25
2023-04-25T10:52:26.922Z,1.55
2023-04-25T10:54:57.765Z,1.50
2023-04-25T10:57:53.796Z,1.45
2023-04-25T11:00:25.715Z,1.90
2023-04-25T11:03:01.156Z,1.23
2023-04-25T11:05:36.446Z,1.42
2023-04-25T11:08:12.786Z,1.00
2023-04-25T11:10:41.172Z,2.22
2023-04-25T11:13:08.307Z,1.08
2023-04-25T11:15:35.041Z,1.35
2023-04-25T11:18:02.093Z,1.30
2023-04-25T11:20:29.913Z,1.10
2023-04-25T11:22:59.753Z,0.98
2023-04-25T11:25:26.978Z,1.10
2023-04-25T11:27:55.380Z,0.90
2023-04-25T11:30:23.361Z,0.95
2023-04-25T11:32:50.132Z,1.60
2023-04-25T11:35:16.997Z,1.13
2023-04-25T11:37:44.660Z,2.25
2023-04-25T11:40:12.699Z,0.93
2023-04-25T11:42:40.683Z,1.17
2023-04-25T11:45:07.845Z,0.90
2023-04-25T11:47:34.966Z,0.80
2023-04-25T11:50:06.290Z,1.30
2023-04-25T11:52:48.445Z,1.45
2023-04-25T11:55:16.792Z,1.92
2023-04-25T11:57:45.510Z,0.95
2023-04-25T12:00:16.510Z,0.90
2023-04-25T12:02:46.569Z,1.05
2023-04-25T12:05:30.311Z,1.05
2023-04-25T12:10:28.943Z,1.20
2023-04-25T12:12:55.594Z,0.98
2023-04-25T12:15:26.130Z,1.02
2023-04-25T12:17:54.787Z,0.80
2023-04-25T12:20:27.308Z,1.00
2023-04-25T12:22:54.586Z,1.20
2023-04-25T12:25:43.024Z,0.70
2023-04-25T12:28:16.257Z,1.20
2023-04-25T12:30:59.180Z,0.90
2023-04-25T12:33:27.189Z,1.10
2023-04-25T12:35:54.752Z,0.80
2023-04-25T12:38:27.794Z,0.93
2023-04-25T12:40:55.026Z,2.05
2023-04-25T12:43:22.858Z,0.88
2023-04-25T12:45:51.919Z,1.20
2023-04-25T12:48:19.132Z,0.88
2023-04-25T12:50:46.543Z,1.08
2023-04-25T12:53:13.147Z,0.90
2023-04-25T12:55:39.870Z,0.82
2023-04-25T12:58:06.449Z,0.88
2023-04-25T13:00:33.062Z,1.15
2023-04-25T13:03:00.187Z,1.02
2023-04-25T13:05:27.200Z,1.77
2023-04-25T13:07:53.924Z,0.98
2023-04-25T13:10:20.526Z,0.98
2023-04-25T13:12:47.234Z,0.80
2023-04-25T13:15:13.856Z,0.80
2023-04-25T13:17:41.289Z,2.47
2023-04-25T13:20:10.116Z,0.88
2023-04-25T13:22:38.818Z,2.17
2023-04-25T13:25:06.865Z,1.55
2023-04-25T13:27:34.944Z,1.33
2023-04-25T13:30:08.278Z,1.08
2023-04-25T13:32:38.567Z,0.75
2023-04-25T13:35:10.488Z,1.10
2023-04-25T13:37:37.943Z,1.48
2023-04-25T13:40:06.587Z,0.80
2023-04-25T13:42:33.538Z,0.70
2023-04-25T13:45:00.129Z,4.05
2023-04-25T13:47:27.997Z,0.80
2023-04-25T13:49:55.437Z,1.08
2023-04-25T13:52:22.142Z,1.45
2023-04-25T13:54:48.692Z,1.30
2023-04-25T13:57:15.354Z,0.88
2023-04-25T13:59:41.967Z,0.93
2023-04-25T14:02:08.547Z,1.02
2023-04-25T14:04:35.113Z,1.13
2023-04-25T14:07:03.160Z,1.15
2023-04-25T14:09:30.219Z,0.80
2023-04-25T14:11:57.356Z,0.60
2023-04-25T14:14:24.488Z,0.60
2023-04-25T14:16:52.386Z,0.70
2023-04-25T14:19:21.550Z,1.10
2023-04-25T14:21:48.849Z,0.98
2023-04-25T14:24:15.838Z,3.72
2023-04-25T14:26:43.567Z,2.00
2023-04-25T14:29:12.709Z,2.47
2023-04-25T14:31:41.110Z,1.05
2023-04-25T14:34:08.392Z,0.80
2023-04-25T14:36:36.364Z,1.63
2023-04-25T14:39:03.436Z,0.85
2023-04-25T14:41:29.994Z,0.75
2023-04-25T14:43:57.944Z,1.20
2023-04-25T14:46:24.777Z,0.82
2023-04-25T14:48:51.828Z,0.60
2023-04-25T14:51:18.466Z,1.20
2023-04-25T14:53:45.204Z,0.60
2023-04-25T14:56:12.200Z,1.17
2023-04-25T14:58:40.980Z,0.90
2023-04-25T15:01:10.519Z,0.60
2023-04-25T15:03:37.373Z,0.70
2023-04-25T15:06:04.157Z,0.57
2023-04-25T15:08:30.952Z,0.65
2023-04-25T15:10:57.539Z,0.60
2023-04-25T15:13:24.409Z,0.70
2023-04-25T15:15:52.326Z,1.15
2023-04-25T15:18:23.003Z,0.80
2023-04-25T15:20:52.680Z,0.93
2023-04-25T15:23:20.209Z,0.70
2023-04-25T15:25:47.079Z,0.70
2023-04-25T15:28:17.336Z,0.60
2023-04-25T15:30:46.804Z,0.82
2023-04-25T15:33:14.342Z,0.70
2023-04-25T15:35:41.015Z,1.10
2023-04-25T15:38:09.050Z,0.70
2023-04-25T15:40:35.662Z,1.05
2023-04-25T15:43:02.250Z,1.50
2023-04-25T15:45:29.699Z,0.75
2023-04-25T15:47:57.327Z,0.65
2023-04-25T15:50:24.267Z,1.30
2023-04-25T15:52:51.358Z,0.77
2023-04-25T15:55:19.532Z,0.70
2023-04-25T15:57:46.374Z,0.60
2023-04-25T16:00:15.114Z,1.60
2023-04-25T16:02:43.956Z,1.58
2023-04-25T16:05:11.611Z,2.15
2023-04-25T16:07:39.538Z,1.45
2023-04-25T16:10:06.564Z,0.88
2023-04-25T16:12:33.262Z,2.33
2023-04-25T16:14:59.868Z,2.05
2023-04-25T16:17:28.111Z,0.70
2023-04-25T16:19:54.723Z,0.70
2023-04-25T16:22:21.823Z,1.55
2023-04-25T16:24:48.443Z,1.10
2023-04-25T16:27:15.049Z,1.02
2023-04-25T16:29:41.983Z,1.52
2023-04-25T16:32:08.667Z,1.80
2023-04-25T16:34:35.357Z,1.52
2023-04-25T16:37:01.966Z,1.75
2023-04-25T16:39:28.565Z,1.13
2023-04-25T16:41:55.297Z,1.30
2023-04-25T16:44:22.013Z,0.90
2023-04-25T16:46:48.892Z,1.35
2023-04-25T16:49:15.885Z,1.45
2023-04-25T16:51:42.553Z,2.08
2023-04-25T16:54:09.173Z,1.08
2023-04-25T16:56:36.107Z,1.77
2023-04-25T16:59:02.682Z,1.98
2023-04-25T17:01:29.875Z,1.67
2023-04-25T17:03:56.851Z,3.22
2023-04-25T17:06:23.555Z,4.95
2023-04-25T17:08:50.421Z,0.70
2023-04-25T17:11:17.303Z,1.55
2023-04-25T17:13:45.193Z,0.90
2023-04-25T17:16:13.677Z,5.18
2023-04-25T17:18:40.354Z,6.32
2023-04-25T17:21:07.159Z,5.20
2023-04-25T17:23:34.283Z,2.65
2023-04-25T17:26:01.272Z,2.13
2023-04-25T17:28:27.945Z,0.63
2023-04-25T17:30:54.863Z,1.17
2023-04-25T17:33:26.799Z,3.10
2023-04-25T17:35:54.337Z,2.72
2023-04-25T17:38:21.060Z,3.75
2023-04-25T17:40:47.826Z,2.75
2023-04-25T17:43:14.429Z,2.17
2023-04-25T17:45:41.310Z,1.13
2023-04-25T17:48:08.477Z,2.78
2023-04-25T17:50:35.206Z,1.45
2023-04-25T17:53:05.554Z,1.27
2023-04-25T17:55:32.297Z,3.67
2023-04-25T17:57:58.845Z,1.65
2023-04-25T18:00:25.642Z,3.25
2023-04-25T18:02:52.737Z,4.38
2023-04-25T18:05:19.979Z,2.97
2023-04-25T18:07:46.607Z,2.53
2023-04-25T18:10:14.516Z,1.80
2023-04-25T18:12:41.103Z,1.92
2023-04-25T18:15:08.338Z,1.02
2023-04-25T18:17:42.602Z,1.65
2023-04-25T18:20:12.006Z,2.17
2023-04-25T18:22:38.644Z,2.72
2023-04-25T18:25:07.291Z,3.42
2023-04-25T18:27:34.023Z,8.32
2023-04-25T18:30:00.753Z,4.03
2023-04-25T18:32:28.541Z,7.07
2023-04-25T18:34:55.567Z,3.42
2023-04-25T18:37:22.262Z,3.88
2023-04-25T18:39:49.173Z,4.47
2023-04-25T18:42:16.219Z,5.68
2023-04-25T18:44:42.880Z,3.47
2023-04-25T18:47:10.389Z,4.30
2023-04-25T18:49:38.780Z,4.30
2023-04-25T18:52:10.660Z,3.75
2023-04-25T18:54:37.421Z,4.35
2023-04-25T18:57:06.112Z,2.88
2023-04-25T18:59:33.336Z,3.45
2023-04-25T19:02:04.794Z,2.65
2023-04-25T19:04:32.330Z,3.72
2023-04-25T19:06:59.666Z,3.78
2023-04-25T19:09:26.476Z,2.40
2023-04-25T19:11:53.215Z,3.08
2023-04-25T19:14:19.852Z,3.63
2023-04-25T19:16:46.667Z,2.55
2023-04-25T19:19:13.507Z,2.60
2023-04-25T19:21:41.557Z,2.35
2023-04-25T19:24:08.701Z,2.83
2023-04-25T19:26:35.383Z,1.90
2023-04-25T19:29:10.215Z,2.10
2023-04-25T19:31:38.990Z,2.13
2023-04-25T19:34:06.959Z,1.33
2023-04-25T19:36:34.141Z,2.00
2023-04-25T19:39:04.522Z,3.08
2023-04-25T19:41:32.126Z,2.20
2023-04-25T19:44:09.260Z,3.65
2023-04-25T19:46:36.799Z,1.52
2023-04-25T19:49:07.195Z,2.80
2023-04-25T19:51:34.483Z,2.80
2023-04-25T19:54:01.129Z,4.53
2023-04-25T19:56:27.814Z,3.75
2023-04-25T19:58:54.703Z,5.00
2023-04-25T20:01:22.354Z,4.32
2023-04-25T20:03:51.702Z,6.75
2023-04-25T20:06:18.882Z,5.53
2023-04-25T20:08:47.113Z,4.75
2023-04-25T20:11:14.025Z,5.82
2023-04-25T20:13:40.703Z,4.25
2023-04-25T20:16:07.797Z,5.97
2023-04-25T20:18:34.970Z,5.82
2023-04-25T20:21:02.154Z,4.63
2023-04-25T20:23:28.777Z,4.93
2023-04-25T20:25:55.823Z,3.05
2023-04-25T20:28:23.360Z,4.35
2023-04-25T20:30:50.402Z,4.50
2023-04-25T20:33:17.048Z,3.45
2023-04-25T20:35:44.389Z,5.30
2023-04-25T20:38:11.717Z,5.28
2023-04-25T20:40:38.459Z,4.65
2023-04-25T20:43:05.377Z,3.63
2023-04-25T20:45:33.769Z,3.88
2023-04-25T20:48:00.502Z,4.25
2023-04-25T20:50:28.057Z,5.07
2023-04-25T20:52:54.703Z,3.08
2023-04-25T20:55:21.569Z,3.88
2023-04-25T20:57:48.359Z,5.90
2023-04-25T21:00:18.550Z,4.25
2023-04-25T21:02:46.638Z,3.58
2023-04-25T21:05:13.659Z,3.60
2023-04-25T21:07:40.305Z,5.15
2023-04-25T21:10:07.410Z,5.32
2023-04-25T21:12:34.052Z,3.28
2023-04-25T21:15:00.789Z,2.85
2023-04-25T21:17:27.687Z,4.38
2023-04-25T21:19:54.329Z,2.38
2023-04-25T21:22:21.573Z,1.95
2023-04-25T21:24:50.749Z,2.00
2023-04-25T21:27:17.666Z,3.45
2023-04-25T21:29:44.344Z,1.92
2023-04-25T21:32:10.972Z,2.13
2023-04-25T21:34:37.615Z,2.13
2023-04-25T21:37:04.302Z,2.33
2023-04-25T21:39:30.925Z,1.88
2023-04-25T21:41:57.552Z,3.25
2023-04-25T21:44:24.139Z,2.47
2023-04-25T21:46:51.038Z,3.13
2023-04-25T21:49:17.636Z,3.97
2023-04-25T21:51:44.631Z,4.70
2023-04-25T21:54:11.716Z,3.33
2023-04-25T21:56:38.278Z,2.13
2023-04-25T21:59:04.974Z,3.20
2023-04-25T22:01:31.736Z,2.38
2023-04-25T22:03:58.699Z,2.55
2023-04-25T22:06:25.471Z,2.35
2023-04-25T22:08:52.331Z,2.65
2023-04-25T22:11:19.164Z,2.33
2023-04-25T22:13:46.792Z,2.50
2023-04-25T22:16:13.428Z,3.70
2023-04-25T22:18:40.740Z,2.13
2023-04-25T22:21:08.638Z,2.85
2023-04-25T22:23:35.476Z,2.00
2023-04-25T22:26:02.564Z,2.95
2023-04-25T22:28:29.788Z,2.35
2023-04-25T22:30:57.330Z,2.35
2023-04-25T22:33:24.038Z,2.58
2023-04-25T22:35:50.772Z,2.50
2023-04-25T22:38:17.466Z,2.85
2023-04-25T22:40:47.826Z,2.70
2023-04-25T22:43:15.803Z,3.10
2023-04-25T22:45:42.868Z,3.20
2023-04-25T22:48:09.618Z,2.35
2023-04-25T22:50:36.912Z,3.17
2023-04-25T22:53:04.147Z,2.33
2023-04-25T22:55:31.451Z,2.40
2023-04-25T22:57:58.120Z,3.05
2023-04-25T23:00:26.321Z,3.17
2023-04-25T23:02:53.981Z,2.15
2023-04-25T23:05:20.845Z,3.75
2023-04-25T23:07:48.396Z,2.45
2023-04-25T23:10:15.084Z,2.30
2023-04-25T23:12:42.113Z,3.00
2023-04-25T23:15:10.107Z,2.03
2023-04-25T23:17:37.177Z,2.05
2023-04-25T23:20:07.491Z,2.47
2023-04-25T23:22:34.590Z,2.80
2023-04-25T23:25:02.063Z,2.13
2023-04-25T23:27:28.697Z,2.30
2023-04-25T23:29:56.611Z,2.60
2023-04-25T23:32:25.577Z,2.10
2023-04-25T23:34:52.344Z,2.10
2023-04-25T23:37:19.111Z,2.88
2023-04-25T23:39:51.447Z,3.22
2023-04-25T23:42:18.897Z,3.30
2023-04-25T23:44:45.591Z,2.85
2023-04-25T23:47:13.865Z,3.35
2023-04-25T23:49:41.082Z,2.10
2023-04-25T23:52:07.919Z,2.80
2023-04-25T23:54:34.773Z,3.00
2023-04-25T23:57:01.656Z,3.22
2023-04-25T23:59:28.697Z,2.78
